createdAt,value
2019-04-22T00:03:39.082Z,10.33
2019-04-22T00:09:05.511Z,15.73
2019-04-22T00:14:05.625Z,15.77
2019-04-22T00:19:20.896Z,8.07
2019-04-22T00:24:25.575Z,10.87
2019-04-22T00:29:49.891Z,14.43
2019-04-22T00:34:52.065Z,15.53
2019-04-22T00:40:17.345Z,16.60
2019-04-22T00:45:06.356Z,11.97
2019-04-22T00:50:18.802Z,11.70
2019-04-22T00:55:23.030Z,14.50
2019-04-22T01:00:31.422Z,12.20
2019-04-22T01:05:41.931Z,11.40
2019-04-22T01:10:52.225Z,14.33
2019-04-22T01:16:01.186Z,10.37
2019-04-22T01:26:12.103Z,16.30
2019-04-22T01:31:07.742Z,13.40
2019-04-22T01:36:31.596Z,12.13
2019-04-22T01:41:48.957Z,13.37
2019-04-22T01:46:50.795Z,12.67
2019-04-22T01:57:03.636Z,18.40
2019-04-22T02:02:17.191Z,14.67
2019-04-22T02:07:25.414Z,11.60
2019-04-22T02:12:34.365Z,17.80
2019-04-22T02:17:36.844Z,12.43
2019-04-22T02:23:42.898Z,16.20
2019-04-22T02:28:33.731Z,19.83
2019-04-22T02:49:11.694Z,18.27
2019-04-22T02:59:26.287Z,14.77
2019-04-22T03:09:29.941Z,16.57
2019-04-22T03:14:44.082Z,14.03
2019-04-22T03:19:59.091Z,16.17
2019-04-22T03:25:14.079Z,16.70
2019-04-22T03:51:01.890Z,12.03
2019-04-22T04:00:58.668Z,10.00
2019-04-22T04:06:02.194Z,11.17
2019-04-22T04:11:10.456Z,9.70
2019-04-22T04:16:29.872Z,14.33
2019-04-22T04:21:33.122Z,11.87
2019-04-22T04:31:58.769Z,15.67
2019-04-22T04:42:17.941Z,15.63
2019-04-22T04:52:27.776Z,17.27
2019-04-22T05:02:46.744Z,21.53
2019-04-22T05:07:48.596Z,19.20
2019-04-22T05:12:57.200Z,26.17
2019-04-22T05:18:07.566Z,29.93
2019-04-22T05:23:05.812Z,23.27
2019-04-22T05:28:17.859Z,18.07
2019-04-22T05:33:21.684Z,17.63
2019-04-22T05:38:38.399Z,19.30
2019-04-22T05:43:34.439Z,24.47
2019-04-22T05:48:43.969Z,22.73
2019-04-22T05:53:57.552Z,23.93
2019-04-22T06:09:16.952Z,20.47
2019-04-22T06:14:23.010Z,18.13
2019-04-22T06:19:31.532Z,19.83
2019-04-22T06:24:54.131Z,17.43
2019-04-22T06:29:55.013Z,17.37
2019-04-22T06:35:09.715Z,19.53
2019-04-22T06:40:13.051Z,21.50
2019-04-22T06:45:24.945Z,13.90
2019-04-22T06:50:39.657Z,23.43
2019-04-22T06:55:41.382Z,21.33
2019-04-22T07:01:04.370Z,12.53
2019-04-22T07:05:52.498Z,19.50
2019-04-22T07:11:12.526Z,17.53
2019-04-22T07:16:16.404Z,14.73
2019-04-22T07:21:16.239Z,16.17
2019-04-22T07:26:30.465Z,15.80
2019-04-22T07:31:39.041Z,11.50
2019-04-22T07:41:50.880Z,10.07
2019-04-22T07:47:04.823Z,13.67
2019-04-22T07:52:09.807Z,17.63
2019-04-22T07:57:20.149Z,13.77
2019-04-22T08:02:26.217Z,11.37
2019-04-22T08:07:36.058Z,16.20
2019-04-22T08:12:44.239Z,14.53
2019-04-22T08:17:54.737Z,13.73
2019-04-22T08:22:57.601Z,14.87
2019-04-22T08:28:03.405Z,24.97
2019-04-22T08:33:09.709Z,17.90
2019-04-22T08:38:12.088Z,21.43
2019-04-22T08:43:32.964Z,21.17
2019-04-22T08:48:29.604Z,21.60
2019-04-22T08:53:40.161Z,18.80
2019-04-22T08:58:40.599Z,24.17
2019-04-22T09:03:58.441Z,27.83
2019-04-22T09:09:24.882Z,24.67
2019-04-22T09:14:16.627Z,24.47
2019-04-22T09:19:17.966Z,23.30
2019-04-22T09:24:25.141Z,22.60
2019-04-22T09:29:39.826Z,25.20
2019-04-22T09:34:40.274Z,29.17
2019-04-22T09:39:51.242Z,35.63
2019-04-22T09:44:56.605Z,27.23
2019-04-22T09:50:24.097Z,28.57
2019-04-22T09:55:14.056Z,30.60
2019-04-22T10:00:21.028Z,23.93
2019-04-22T10:05:28.561Z,24.13
2019-04-22T10:10:44.108Z,28.07
2019-04-22T10:16:03.135Z,33.40
2019-04-22T10:26:50.357Z,27.73
2019-04-22T10:32:20.559Z,30.40
2019-04-22T10:37:25.255Z,32.03
2019-04-22T10:42:49.474Z,28.67
2019-04-22T10:48:14.576Z,26.73
2019-04-22T10:53:39.694Z,40.63
2019-04-22T10:59:04.830Z,27.77
2019-04-22T11:04:11.210Z,29.63
2019-04-22T11:09:18.083Z,34.20
2019-04-22T11:14:23.743Z,34.17
2019-04-22T11:19:29.871Z,34.40
2019-04-22T11:24:36.867Z,67.60
2019-04-22T11:29:43.921Z,34.70
2019-04-22T11:34:49.488Z,34.17
2019-04-22T11:40:06.769Z,38.33
2019-04-22T11:45:05.557Z,40.63
2019-04-22T11:50:12.205Z,28.03
2019-04-22T11:55:19.148Z,32.30
2019-04-22T12:00:32.765Z,32.83
2019-04-22T12:05:41.793Z,35.00
2019-04-22T12:11:01.818Z,27.57
2019-04-22T12:16:07.524Z,26.57
2019-04-22T12:21:13.265Z,34.10
2019-04-22T12:26:21.452Z,30.60
2019-04-22T12:31:39.888Z,24.10
2019-04-22T12:36:46.830Z,26.90
2019-04-22T12:41:52.540Z,24.80
2019-04-22T12:47:00.333Z,23.10
2019-04-22T12:52:05.587Z,26.83
2019-04-22T12:57:12.333Z,22.07
2019-04-22T13:02:18.797Z,29.87
2019-04-22T13:07:24.241Z,54.37
2019-04-22T13:12:31.029Z,70.13
2019-04-22T13:17:37.956Z,52.83
2019-04-22T13:22:45.015Z,52.67
2019-04-22T13:27:51.187Z,28.43
2019-04-22T13:32:58.641Z,21.63
2019-04-22T13:38:04.845Z,24.80
2019-04-22T13:43:11.121Z,26.03
2019-04-22T13:48:41.790Z,29.47
2019-04-22T13:54:14.080Z,42.93
2019-04-22T13:58:44.836Z,24.43
2019-04-22T14:04:04.796Z,23.63
2019-04-22T14:09:16.644Z,23.80
2019-04-22T14:14:30.931Z,22.50
2019-04-22T14:19:42.357Z,25.83
2019-04-22T14:24:48.852Z,28.10
2019-04-22T14:29:55.595Z,28.97
2019-04-22T14:35:02.988Z,35.00
2019-04-22T14:40:11.815Z,23.87
2019-04-22T14:45:52.064Z,25.83
2019-04-22T14:50:48.228Z,27.10
2019-04-22T14:55:36.293Z,30.83
2019-04-22T15:00:45.981Z,34.40
2019-04-22T15:05:52.315Z,29.73
2019-04-22T15:10:58.301Z,28.57
2019-04-22T15:16:25.812Z,26.53
2019-04-22T15:21:32.489Z,33.77
2019-04-22T15:26:52.988Z,26.03
2019-04-22T15:32:07.582Z,33.13
2019-04-22T15:37:13.952Z,28.50
2019-04-22T15:42:27.636Z,37.97
2019-04-22T15:47:27.129Z,38.10
2019-04-22T15:52:41.702Z,26.57
2019-04-22T15:57:44.060Z,37.83
2019-04-22T16:02:49.927Z,33.20
2019-04-22T16:07:57.167Z,28.43
2019-04-22T16:13:10.573Z,36.93
2019-04-22T16:18:30.813Z,31.53
2019-04-22T16:23:58.633Z,28.67
2019-04-22T16:29:05.286Z,27.63
2019-04-22T16:34:11.440Z,28.97
2019-04-22T16:39:18.513Z,23.80
2019-04-22T16:44:26.737Z,36.53
2019-04-22T16:49:33.850Z,24.67
2019-04-22T16:54:40.042Z,34.43
2019-04-22T16:59:46.585Z,23.40
2019-04-22T17:05:07.431Z,26.17
2019-04-22T17:10:13.662Z,23.87
2019-04-22T17:15:20.740Z,23.60
2019-04-22T17:20:27.148Z,29.83
2019-04-22T17:25:34.183Z,28.13
2019-04-22T17:30:41.449Z,28.20
2019-04-22T17:35:49.912Z,29.30
2019-04-22T17:41:09.026Z,32.07
2019-04-22T17:46:24.681Z,32.03
2019-04-22T17:51:39.661Z,23.87
2019-04-22T17:56:48.710Z,31.87
2019-04-22T18:01:49.173Z,24.40
2019-04-22T18:07:07.377Z,25.53
2019-04-22T18:12:12.029Z,29.77
2019-04-22T18:17:18.763Z,25.10
2019-04-22T18:22:19.933Z,26.07
2019-04-22T18:32:30.638Z,29.03
2019-04-22T18:37:49.993Z,33.67
2019-04-22T18:42:58.533Z,29.80
2019-04-22T18:47:55.520Z,29.53
2019-04-22T18:53:31.864Z,31.00
2019-04-22T18:58:23.100Z,28.37
2019-04-22T19:03:20.285Z,32.30
2019-04-22T19:08:44.714Z,33.60
2019-04-22T19:14:40.753Z,31.97
2019-04-22T19:19:22.766Z,34.80
2019-04-22T19:24:09.112Z,31.27
2019-04-22T19:29:20.395Z,34.77
2019-04-22T19:34:28.767Z,38.10
2019-04-22T19:39:27.217Z,35.73
2019-04-22T19:44:37.770Z,40.07
2019-04-22T19:49:55.456Z,35.87
2019-04-22T19:54:57.240Z,34.77
2019-04-22T20:00:03.877Z,40.93
2019-04-22T20:05:33.654Z,35.33
2019-04-22T20:10:41.318Z,34.07
2019-04-22T20:15:37.177Z,36.77
2019-04-22T20:20:58.493Z,34.40
2019-04-22T20:25:51.169Z,31.97
2019-04-22T20:31:12.475Z,28.40
2019-04-22T20:36:26.940Z,25.93
2019-04-22T20:41:17.134Z,30.83
2019-04-22T20:46:24.089Z,23.03
2019-04-22T20:51:48.682Z,24.90
2019-04-22T20:56:38.627Z,30.80
2019-04-22T21:01:49.316Z,23.77
2019-04-22T21:06:53.039Z,26.33
2019-04-22T21:11:56.613Z,34.00
2019-04-22T21:17:15.620Z,37.90
2019-04-22T21:22:20.614Z,28.37
2019-04-22T21:27:32.486Z,31.53
2019-04-22T21:32:34.369Z,33.00
2019-04-22T21:37:42.981Z,38.40
2019-04-22T21:42:54.159Z,35.77
2019-04-22T21:48:08.274Z,40.90
2019-04-22T21:53:08.622Z,37.27
2019-04-22T21:58:31.521Z,32.13
2019-04-22T22:03:23.653Z,31.90
2019-04-22T22:08:32.155Z,22.30
2019-04-22T22:13:39.303Z,31.33
2019-04-22T22:18:35.094Z,23.67
2019-04-22T22:23:50.446Z,26.20
2019-04-22T22:29:04.833Z,23.60
2019-04-22T22:34:09.771Z,21.00
2019-04-22T22:39:05.734Z,18.50
2019-04-22T22:44:08.943Z,19.67
2019-04-22T22:49:28.674Z,12.73
2019-04-22T22:54:37.426Z,11.03
2019-04-22T22:59:38.331Z,14.03
2019-04-22T23:04:52.231Z,10.80
2019-04-22T23:09:55.141Z,9.60
2019-04-22T23:14:59.298Z,10.43
2019-04-22T23:19:53.744Z,10.73
2019-04-22T23:25:25.170Z,13.97
2019-04-22T23:30:38.319Z,12.87
2019-04-22T23:36:06.110Z,10.87
2019-04-22T23:46:48.400Z,13.23
2019-04-22T23:52:22.685Z,13.00
2019-04-22T23:57:00.123Z,12.80
